Time;durP1;ratioP1;P1;durP2;ratioP2;P2;SDS_P1;SDS_P2;PMS_P1;PMS_P2;Temp;Humidity;BMP_temperature;BMP_pressure;BME280_temperature;BME280_humidity;BME280_pressure;Samples;Min_cycle;Max_cycle;Signal;HPM_P1;HPM_P2
2023/10/25 00:01:00;;;;;;;13.93;6.30;;;;;;;18.67;55.93;99158.63;4993281;28;20037;-26
2023/10/25 00:03:26;;;;;;;20.15;6.40;;;;;;;18.65;55.94;99152.69;4993303;28;20034;-26
2023/10/25 00:05:51;;;;;;;17.90;5.88;;;;;;;18.68;55.32;99157.56;4993280;28;20026;-25
2023/10/25 00:08:16;;;;;;;18.77;6.78;;;;;;;18.68;55.43;99162.94;4993226;28;20525;-26
2023/10/25 00:10:42;;;;;;;17.95;6.13;;;;;;;18.64;55.42;99169.97;4993244;28;20057;-26
2023/10/25 00:13:07;;;;;;;19.38;6.18;;;;;;;18.78;55.09;99164.03;4984223;28;20050;-26
2023/10/25 00:15:33;;;;;;;21.15;5.80;;;;;;;18.80;55.22;99168.09;4991378;28;20592;-25
2023/10/25 00:17:58;;;;;;;17.05;6.15;;;;;;;18.76;54.92;99151.63;4993673;28;20026;-25
2023/10/25 00:20:23;;;;;;;20.48;6.65;;;;;;;18.70;54.98;99146.50;4993382;28;20084;-25
2023/10/25 00:22:49;;;;;;;20.50;6.65;;;;;;;18.62;54.87;99139.78;4993194;28;20485;-25
2023/10/25 00:25:14;;;;;;;19.00;6.25;;;;;;;18.73;54.53;99149.47;4993012;28;20034;-25
2023/10/25 00:27:39;;;;;;;15.48;6.05;;;;;;;18.71;54.44;99140.84;4993072;28;20026;-26
2023/10/25 00:30:06;;;;;;;20.50;6.20;;;;;;;18.69;54.29;99123.31;4992631;28;20070;-26
2023/10/25 00:32:31;;;;;;;20.45;6.60;;;;;;;18.59;53.94;99126.84;4993148;28;20080;-26
2023/10/25 00:34:56;;;;;;;15.13;6.65;;;;;;;18.60;54.30;99131.16;4992989;28;20026;-26
2023/10/25 00:37:22;;;;;;;17.33;6.38;;;;;;;18.56;54.22;99127.38;4992954;28;20026;-26
2023/10/25 00:39:47;;;;;;;17.55;6.18;;;;;;;18.66;54.11;99124.69;4992706;28;20042;-26
2023/10/25 00:42:13;;;;;;;20.35;6.85;;;;;;;18.64;54.20;99121.47;4992645;28;20033;-26
2023/10/25 00:44:39;;;;;;;13.27;6.22;;;;;;;18.55;54.60;99117.69;4992809;28;20045;-26
2023/10/25 00:47:04;;;;;;;17.00;6.32;;;;;;;18.53;54.85;99123.34;4992932;28;20034;-26
2023/10/25 00:49:30;;;;;;;18.92;6.65;;;;;;;18.55;54.86;99131.16;4992708;28;20038;-26
2023/10/25 00:51:56;;;;;;;20.52;5.93;;;;;;;18.12;55.14;99120.66;4993030;28;20026;-26
2023/10/25 00:54:22;;;;;;;23.25;6.57;;;;;;;18.22;55.08;99130.63;4992535;28;20033;-26
2023/10/25 00:56:49;;;;;;;19.85;6.25;;;;;;;18.18;55.22;99134.91;4992774;28;20038;-25
2023/10/25 00:59:16;;;;;;;17.65;5.88;;;;;;;18.19;54.94;99141.13;4992911;28;20030;-25
2023/10/25 01:01:41;;;;;;;14.00;5.78;;;;;;;17.82;55.78;99142.09;4992611;28;20105;-25
2023/10/25 01:04:07;;;;;;;18.27;5.82;;;;;;;17.76;55.95;99147.50;4992329;28;20144;-26
2023/10/25 01:06:32;;;;;;;17.08;5.72;;;;;;;17.88;55.56;99146.47;4992352;28;20088;-26
2023/10/25 01:08:59;;;;;;;15.15;5.90;;;;;;;18.04;55.41;99150.00;4992155;28;20070;-26
2023/10/25 01:11:25;;;;;;;13.98;5.80;;;;;;;18.11;54.88;99137.88;4992464;28;20062;-25
2023/10/25 01:13:50;;;;;;;17.63;5.40;;;;;;;18.19;54.53;99138.44;4992307;28;20097;-26
2023/10/25 01:16:16;;;;;;;20.63;5.57;;;;;;;18.31;54.14;99134.38;4992266;28;20478;-26
2023/10/25 01:18:41;;;;;;;13.98;5.82;;;;;;;18.19;54.58;99133.84;4992165;28;20057;-25
2023/10/25 01:21:07;;;;;;;12.73;5.50;;;;;;;18.28;54.41;99148.41;4992318;28;20046;-25
2023/10/25 01:23:32;;;;;;;20.30;5.40;;;;;;;18.35;53.78;99145.44;4991818;28;20593;-25
2023/10/25 01:25:57;;;;;;;21.98;5.20;;;;;;;18.25;54.08;99143.56;4989011;28;20101;-26
2023/10/25 01:28:23;;;;;;;15.55;5.25;;;;;;;18.38;53.46;99146.81;4972715;28;20022;-27
2023/10/25 01:30:48;;;;;;;16.17;5.45;;;;;;;18.38;53.33;99130.63;4972623;28;20035;-26
2023/10/25 01:33:14;;;;;;;12.75;4.90;;;;;;;18.32;53.22;99133.31;4981700;28;20525;-26
2023/10/25 01:35:39;;;;;;;12.98;5.30;;;;;;;18.21;53.75;99125.50;5011479;28;20026;-26
2023/10/25 01:38:04;;;;;;;14.68;5.80;;;;;;;18.18;54.02;99110.69;5011459;28;20104;-26
2023/10/25 01:40:30;;;;;;;17.40;5.22;;;;;;;18.25;53.49;99115.81;5011494;28;20034;-26
2023/10/25 01:42:55;;;;;;;14.32;5.22;;;;;;;18.32;53.53;99117.16;5010522;28;20477;-25
2023/10/25 01:45:27;;;;;;;14.07;5.30;;;;;;;18.32;53.71;99117.16;5011317;28;20117;-26
2023/10/25 01:47:52;;;;;;;9.45;4.93;;;;;;;18.31;53.67;99114.72;5011511;28;20029;-25
2023/10/25 01:50:18;;;;;;;13.77;5.45;;;;;;;18.39;53.40;99125.00;5011080;28;20025;-26
2023/10/25 01:52:44;;;;;;;12.32;5.05;;;;;;;18.36;53.61;99104.78;5010875;28;20488;-27
2023/10/25 01:55:09;;;;;;;18.00;5.47;;;;;;;18.26;53.85;99094.00;5011293;28;20026;-26
2023/10/25 01:57:35;;;;;;;17.83;5.20;;;;;;;18.16;53.79;99084.06;5011374;28;20018;-26
2023/10/25 02:00:06;;;;;;;14.52;5.82;;;;;;;18.17;53.67;99072.19;5011141;28;20029;-27
2023/10/25 02:02:32;;;;;;;13.68;4.93;;;;;;;18.19;53.60;99076.50;5010992;28;20464;-26
2023/10/25 02:04:57;;;;;;;16.13;5.28;;;;;;;18.19;53.60;99066.53;5010725;28;20054;-26
2023/10/25 02:07:23;;;;;;;18.60;5.68;;;;;;;18.29;53.46;99066.53;5011027;28;20030;-26
2023/10/25 02:09:48;;;;;;;16.00;5.40;;;;;;;18.34;53.46;99063.84;5010938;28;20030;-26
2023/10/25 02:12:13;;;;;;;16.25;5.53;;;;;;;18.35;53.55;99068.16;5010661;28;20142;-26
2023/10/25 02:14:39;;;;;;;15.73;5.25;;;;;;;18.43;53.04;99060.59;5010715;28;20034;-26
2023/10/25 02:17:05;;;;;;;17.92;5.22;;;;;;;18.06;53.95;99061.69;5011012;28;20199;-26
2023/10/25 02:19:31;;;;;;;14.55;5.20;;;;;;;17.72;54.61;99051.41;5010579;28;20425;-26
2023/10/25 02:21:56;;;;;;;11.93;5.25;;;;;;;17.35;55.83;99047.03;4998404;28;20399;-26
2023/10/25 02:24:22;;;;;;;17.73;6.25;;;;;;;17.33;56.32;99060.75;4991238;28;20041;-26
2023/10/25 02:26:49;;;;;;;19.38;6.05;;;;;;;17.33;56.74;99055.38;4991120;28;20098;-26
2023/10/25 02:29:15;;;;;;;13.32;5.72;;;;;;;17.48;56.19;99064.56;4991209;28;20142;-26
2023/10/25 02:31:40;;;;;;;14.43;5.35;;;;;;;17.58;56.27;99072.66;4990817;28;20490;-26
2023/10/25 02:34:06;;;;;;;17.00;5.78;;;;;;;17.58;56.47;99076.13;4991126;28;20019;-26
2023/10/25 02:36:31;;;;;;;14.73;6.00;;;;;;;17.74;55.93;99081.53;4991006;28;20018;-26
2023/10/25 02:38:57;;;;;;;15.57;5.22;;;;;;;17.76;55.95;99068.63;4991035;28;20054;-26
2023/10/25 02:41:23;;;;;;;13.63;5.43;;;;;;;17.73;56.07;99067.28;4990885;28;20048;-26
2023/10/25 02:43:53;;;;;;;15.13;5.80;;;;;;;17.75;55.85;99081.28;4990876;28;20038;-27
2023/10/25 02:46:19;;;;;;;14.23;5.68;;;;;;;17.80;55.81;99080.50;4990597;28;20109;-27
2023/10/25 02:48:45;;;;;;;16.73;5.82;;;;;;;17.86;55.56;99079.47;4990881;28;20026;-26
2023/10/25 02:51:11;;;;;;;18.63;5.93;;;;;;;17.90;55.81;99085.13;4990827;28;20033;-26
2023/10/25 02:53:36;;;;;;;12.45;5.57;;;;;;;17.93;55.75;99095.31;4992245;28;20474;-26
2023/10/25 02:56:04;;;;;;;20.20;6.70;;;;;;;17.84;56.01;99110.34;4994883;28;20077;-26
2023/10/25 02:58:30;;;;;;;19.30;7.70;;;;;;;17.72;56.35;99099.84;4994975;28;20026;-26
2023/10/25 03:00:56;;;;;;;19.33;6.22;;;;;;;17.71;56.74;99111.69;4994494;28;20105;-26
2023/10/25 03:03:31;;;;;;;15.80;6.38;;;;;;;17.70;56.49;99104.69;4994177;28;20026;-26
2023/10/25 03:05:57;;;;;;;20.65;6.00;;;;;;;17.64;56.25;99090.41;4994506;28;20117;-26
2023/10/25 03:08:23;;;;;;;17.73;5.78;;;;;;;17.49;57.14;99091.16;4994223;28;20105;-26
2023/10/25 03:10:48;;;;;;;14.13;6.15;;;;;;;17.48;57.38;99089.56;4994698;28;20026;-26
2023/10/25 03:13:14;;;;;;;15.48;5.65;;;;;;;17.39;57.32;99109.97;4994355;28;20026;-26
2023/10/25 03:15:39;;;;;;;23.35;6.30;;;;;;;17.54;57.11;99101.97;4994432;28;20081;-26
2023/10/25 03:18:05;;;;;;;19.92;7.05;;;;;;;17.48;57.39;99080.69;4994494;28;20022;-26
2023/10/25 03:20:32;;;;;;;22.80;6.65;;;;;;;17.54;57.18;99099.25;4994825;28;20458;-26
2023/10/25 03:22:58;;;;;;;17.20;6.45;;;;;;;17.57;57.01;99100.59;4994123;28;20079;-26
2023/10/25 03:25:23;;;;;;;17.45;5.88;;;;;;;17.55;57.31;99106.28;4994358;28;20042;-26
2023/10/25 03:27:48;;;;;;;18.45;6.38;;;;;;;17.40;57.58;99098.13;4994297;28;20176;-26
2023/10/25 03:30:15;;;;;;;13.02;5.88;;;;;;;17.59;57.28;99112.75;4994175;28;20026;-26
2023/10/25 03:32:40;;;;;;;15.18;5.80;;;;;;;17.58;57.34;99124.56;4994182;28;20386;-26
2023/10/25 03:35:06;;;;;;;17.70;6.30;;;;;;;17.44;57.92;99126.13;4993993;28;20018;-26
2023/10/25 03:37:32;;;;;;;15.13;6.30;;;;;;;17.43;57.60;99129.09;4994334;28;20022;-26
2023/10/25 03:39:57;;;;;;;13.25;5.82;;;;;;;17.41;58.11;99131.22;4994111;28;20029;-27
2023/10/25 03:42:23;;;;;;;12.10;5.53;;;;;;;17.56;57.16;99126.72;4994254;28;20468;-26
2023/10/25 03:44:48;;;;;;;15.45;5.45;;;;;;;17.61;56.88;99130.47;4993965;28;20026;-26
2023/10/25 03:47:13;;;;;;;19.55;6.10;;;;;;;17.43;57.39;99121.81;4993770;28;20038;-27
2023/10/25 03:49:39;;;;;;;13.93;6.07;;;;;;;17.65;56.87;99134.25;4994158;28;20390;-27
2023/10/25 03:52:05;;;;;;;13.50;5.88;;;;;;;17.49;56.98;99150.34;4994082;28;20030;-27
2023/10/25 03:54:30;;;;;;;18.30;6.00;;;;;;;17.23;57.88;99154.00;5009203;28;20027;-26
2023/10/25 03:56:56;;;;;;;14.30;5.25;;;;;;;17.36;56.85;99165.09;4993851;28;20018;-26
2023/10/25 03:59:21;;;;;;;16.15;5.28;;;;;;;17.16;57.13;99141.59;4993881;28;20048;-27
2023/10/25 04:01:47;;;;;;;16.65;5.65;;;;;;;17.34;56.75;99128.78;4993626;28;20033;-26
2023/10/25 04:04:12;;;;;;;18.50;5.80;;;;;;;17.39;57.43;99118.03;4993991;28;20046;-27
2023/10/25 04:06:38;;;;;;;16.20;6.22;;;;;;;17.43;57.75;99099.50;4993901;28;20045;-27
2023/10/25 04:09:03;;;;;;;21.55;6.20;;;;;;;17.42;57.90;99098.69;4994764;28;20120;-27
2023/10/25 04:11:29;;;;;;;18.58;5.28;;;;;;;17.56;57.60;99101.69;4994942;28;20026;-26
2023/10/25 04:13:55;;;;;;;18.83;5.95;;;;;;;17.49;57.39;99091.16;4994494;28;20034;-26
2023/10/25 04:16:20;;;;;;;21.48;5.70;;;;;;;17.54;56.84;99077.75;4994640;28;20019;-27
2023/10/25 04:18:45;;;;;;;14.85;4.88;;;;;;;17.54;56.54;99072.38;4994595;28;20105;-27
2023/10/25 04:21:13;;;;;;;17.60;4.72;;;;;;;17.43;56.71;99059.97;4994815;28;20475;-27
2023/10/25 04:23:38;;;;;;;14.95;5.55;;;;;;;17.52;57.15;99062.94;4994673;28;20568;-26
2023/10/25 04:26:12;;;;;;;15.45;5.00;;;;;;;17.58;57.12;99067.25;4994452;28;20089;-28
2023/10/25 04:28:39;;;;;;;20.52;5.55;;;;;;;17.70;56.53;99065.13;4994269;28;20556;-28
2023/10/25 04:31:07;;;;;;;14.75;5.43;;;;;;;17.66;56.07;99045.22;5000694;28;20026;-29
2023/10/25 04:33:32;;;;;;;16.20;6.07;;;;;;;17.69;56.51;99041.19;5011923;28;20028;-27
2023/10/25 04:35:58;;;;;;;17.48;5.07;;;;;;;17.74;56.06;99044.69;5013645;28;20013;-27
2023/10/25 04:38:24;;;;;;;22.85;5.95;;;;;;;17.74;56.48;99042.00;5013191;28;20030;-27
2023/10/25 04:40:51;;;;;;;25.80;6.35;;;;;;;17.77;56.36;99043.34;5013827;28;20025;-27
2023/10/25 04:43:17;;;;;;;17.98;5.15;;;;;;;17.79;56.28;99027.75;5013420;28;20418;-26
2023/10/25 04:45:42;;;;;;;18.35;6.47;;;;;;;17.58;56.73;99011.56;5013241;28;20497;-27
2023/10/25 04:48:08;;;;;;;14.70;5.70;;;;;;;17.81;56.24;99033.66;5013359;28;20049;-28
2023/10/25 04:50:36;;;;;;;22.55;5.97;;;;;;;17.77;56.02;99025.31;5012830;28;20034;-27
2023/10/25 04:53:02;;;;;;;15.48;5.38;;;;;;;17.84;56.13;99019.72;5011864;28;20026;-27
2023/10/25 04:55:29;;;;;;;16.17;5.80;;;;;;;17.73;56.98;99021.56;5012784;28;20080;-28
2023/10/25 04:57:58;;;;;;;17.60;5.82;;;;;;;17.74;56.64;99016.97;5000776;28;20028;-28
2023/10/25 05:00:23;;;;;;;17.80;6.23;;;;;;;17.74;56.64;99017.78;4993413;28;20026;-27
2023/10/25 05:02:49;;;;;;;22.90;7.10;;;;;;;17.87;56.37;99019.16;5006546;28;20076;-27
2023/10/25 05:05:15;;;;;;;26.80;8.40;;;;;;;17.71;57.03;99021.00;4988192;28;20533;-30
2023/10/25 05:07:41;;;;;;;21.85;8.73;;;;;;;17.81;56.95;99016.72;4993482;28;20116;-27
2023/10/25 05:10:08;;;;;;;24.20;7.93;;;;;;;17.82;56.30;99008.38;4990888;28;20093;-28
2023/10/25 05:12:41;;;;;;;27.48;9.32;;;;;;;17.83;56.95;99007.28;4992372;28;20092;-26
2023/10/25 05:15:15;;;;;;;24.52;7.90;;;;;;;17.75;62.42;99013.22;4999558;28;20022;-27
2023/10/25 05:17:42;;;;;;;16.85;6.65;;;;;;;17.86;57.00;99012.19;5004022;28;20030;-27
2023/10/25 05:20:09;;;;;;;21.52;7.05;;;;;;;17.83;56.59;99009.19;5012857;28;20178;-27
2023/10/25 05:22:36;;;;;;;18.50;7.03;;;;;;;17.47;61.36;99006.44;5008787;28;20120;-27
2023/10/25 05:25:03;;;;;;;28.35;8.07;;;;;;;17.44;57.97;99005.13;4998067;28;20121;-27
2023/10/25 05:27:29;;;;;;;16.45;7.10;;;;;;;17.24;57.96;99019.31;5004204;28;20041;-28
2023/10/25 05:29:59;;;;;;;20.95;7.90;;;;;;;17.24;58.08;99018.50;4992798;28;20027;-27
2023/10/25 05:32:26;;;;;;;24.17;7.43;;;;;;;17.43;57.70;99027.69;4993126;28;20057;-27
2023/10/25 05:34:51;;;;;;;27.33;7.95;;;;;;;17.38;58.17;99033.03;4992753;28;20143;-28
2023/10/25 05:37:17;;;;;;;20.70;7.47;;;;;;;17.41;57.53;99023.66;4992406;28;20026;-27
2023/10/25 05:39:43;;;;;;;25.20;7.28;;;;;;;17.56;57.31;99027.19;4992037;28;20069;-28
2023/10/25 05:42:15;;;;;;;19.08;7.15;;;;;;;17.43;57.18;99024.19;4991131;28;20025;-27
2023/10/25 05:44:41;;;;;;;24.27;7.43;;;;;;;17.55;56.98;99019.38;4992229;28;20508;-28
2023/10/25 05:47:06;;;;;;;21.13;6.82;;;;;;;17.46;56.97;99020.97;4992764;28;20121;-26
2023/10/25 05:49:32;;;;;;;18.88;6.95;;;;;;;17.42;57.22;99033.31;4992679;28;20029;-25
2023/10/25 05:51:58;;;;;;;21.33;6.72;;;;;;;17.36;56.65;99035.19;4992528;28;20022;-27
2023/10/25 05:54:23;;;;;;;18.67;7.03;;;;;;;17.24;56.99;99037.31;4992481;28;20548;-26
2023/10/25 05:56:49;;;;;;;23.23;7.60;;;;;;;17.23;56.99;99046.44;4992809;28;20501;-27
2023/10/25 05:59:15;;;;;;;38.45;11.30;;;;;;;16.87;58.55;99051.69;4992388;28;20077;-28
2023/10/25 06:01:53;;;;;;;26.80;9.50;;;;;;;17.06;58.08;99060.94;4992360;28;20029;-27
2023/10/25 06:04:19;;;;;;;30.73;10.63;;;;;;;16.89;58.86;99052.25;4992267;28;20054;-28
2023/10/25 06:06:45;;;;;;;29.98;9.05;;;;;;;16.80;58.92;99052.69;4992073;28;20038;-27
2023/10/25 06:09:13;;;;;;;30.23;9.05;;;;;;;16.65;59.31;99054.50;4992257;28;20101;-28
2023/10/25 06:11:39;;;;;;;25.67;8.43;;;;;;;17.05;58.32;99064.66;4992424;28;20033;-27
2023/10/25 06:14:08;;;;;;;28.50;9.57;;;;;;;16.34;59.89;99079.28;4991993;28;20049;-27
2023/10/25 06:16:34;;;;;;;31.77;9.35;;;;;;;16.13;61.01;99070.25;4992167;28;20022;-31
2023/10/25 06:19:00;;;;;;;30.63;10.60;;;;;;;16.33;61.13;99071.47;4992310;28;20057;-27
2023/10/25 06:21:26;;;;;;;33.22;10.32;;;;;;;16.13;61.92;99074.81;4991780;28;20041;-27
2023/10/25 06:23:52;;;;;;;32.60;10.80;;;;;;;16.55;59.86;99069.47;4990041;28;20030;-27
2023/10/25 06:26:18;;;;;;;37.78;11.40;;;;;;;16.54;60.19;99080.47;4992435;28;20105;-27
2023/10/25 06:28:44;;;;;;;34.70;12.70;;;;;;;16.71;59.24;99094.56;4989665;28;20027;-28
2023/10/25 06:31:11;;;;;;;27.42;11.02;;;;;;;16.90;59.15;99094.16;4992401;28;20033;-27
2023/10/25 06:33:36;;;;;;;33.28;10.20;;;;;;;17.14;58.04;99095.34;4992367;28;20343;-26
2023/10/25 06:36:02;;;;;;;33.00;10.15;;;;;;;17.14;58.57;99106.13;4991424;28;20089;-27
2023/10/25 06:38:28;;;;;;;40.10;10.55;;;;;;;17.24;57.79;99096.47;4991486;28;20456;-27
2023/10/25 06:40:53;;;;;;;37.72;10.55;;;;;;;17.45;57.16;99098.16;4990749;28;20030;-27
2023/10/25 06:43:19;;;;;;;32.63;9.45;;;;;;;17.52;57.24;99098.72;4990597;28;20037;-26
2023/10/25 06:45:48;;;;;;;25.13;8.70;;;;;;;17.65;56.53;99078.59;4991318;28;20168;-28
2023/10/25 06:48:14;;;;;;;26.77;8.48;;;;;;;17.77;55.87;99089.09;4991571;28;20026;-28
2023/10/25 06:50:39;;;;;;;26.15;8.20;;;;;;;17.85;56.24;99088.59;4991427;28;20044;-28
2023/10/25 06:53:05;;;;;;;24.77;9.25;;;;;;;17.60;56.34;99094.72;4991326;28;20034;-27
2023/10/25 06:55:31;;;;;;;27.67;9.18;;;;;;;17.49;57.12;99082.31;4991480;28;20094;-27
2023/10/25 06:57:56;;;;;;;37.10;9.65;;;;;;;17.62;56.86;99081.78;4992067;28;20073;-29
2023/10/25 07:00:22;;;;;;;36.03;10.00;;;;;;;17.19;58.28;99086.50;4991607;28;20041;-27
2023/10/25 07:02:53;;;;;;;32.35;9.93;;;;;;;17.10;59.22;99083.50;4991739;28;20034;-31
2023/10/25 07:05:21;;;;;;;23.70;10.07;;;;;;;17.20;58.56;99069.31;4991632;28;20125;-29
2023/10/25 07:07:49;;;;;;;22.60;9.55;;;;;;;17.01;59.51;99093.16;4991731;28;20026;-29
2023/10/25 07:10:15;;;;;;;30.17;8.98;;;;;;;17.26;58.90;99092.44;4991729;28;20046;-27
2023/10/25 07:12:40;;;;;;;22.50;8.43;;;;;;;17.70;58.11;99091.22;4991755;28;20037;-28
2023/10/25 07:15:06;;;;;;;27.02;8.30;;;;;;;17.83;57.43;99085.31;4991628;28;20019;-27
2023/10/25 07:17:31;;;;;;;26.38;8.15;;;;;;;18.02;56.99;99091.03;4991372;28;20513;-28
2023/10/25 07:20:00;;;;;;;24.27;8.10;;;;;;;18.11;57.00;99089.44;4991671;28;20090;-26
2023/10/25 07:22:27;;;;;;;24.02;7.93;;;;;;;17.86;57.44;99074.06;4991841;28;20043;-27
2023/10/25 07:24:52;;;;;;;28.50;7.82;;;;;;;18.07;56.83;99071.41;4991402;28;20036;-30
2023/10/25 07:27:18;;;;;;;27.27;8.68;;;;;;;18.29;56.35;99071.91;4991669;28;20038;-28
2023/10/25 07:29:43;;;;;;;25.13;8.32;;;;;;;18.59;55.27;99074.84;4991424;28;20478;-27
2023/10/25 07:32:08;;;;;;;26.38;8.23;;;;;;;18.66;55.01;99076.19;4991273;28;20049;-28
2023/10/25 07:34:34;;;;;;;29.85;8.00;;;;;;;18.75;54.83;99079.13;4991246;28;20045;-27
2023/10/25 07:36:59;;;;;;;26.10;7.65;;;;;;;18.87;54.84;99076.16;4991496;28;20011;-27
2023/10/25 07:39:26;;;;;;;29.77;8.82;;;;;;;18.95;54.66;99071.00;4991288;28;20107;-28
2023/10/25 07:41:51;;;;;;;24.33;8.65;;;;;;;19.02;54.11;99078.81;4994111;28;20030;-27
2023/10/25 07:44:16;;;;;;;30.95;8.10;;;;;;;19.08;53.96;99080.41;4994719;28;20114;-28
2023/10/25 07:46:42;;;;;;;25.08;8.25;;;;;;;19.22;53.52;99093.28;4994501;28;20022;-27
2023/10/25 07:49:07;;;;;;;24.40;8.25;;;;;;;19.17;54.05;99102.19;4994420;28;20540;-28
2023/10/25 07:51:33;;;;;;;26.17;8.43;;;;;;;19.27;53.63;99101.38;4994520;28;20053;-27
2023/10/25 07:53:58;;;;;;;27.05;8.60;;;;;;;19.40;53.09;99098.06;4994466;28;20501;-28
2023/10/25 07:56:23;;;;;;;25.17;8.55;;;;;;;19.09;53.80;99100.06;4994449;28;20037;-28
2023/10/25 07:58:50;;;;;;;31.98;8.57;;;;;;;19.03;54.26;99099.28;4994929;28;20044;-27
2023/10/25 08:01:15;;;;;;;25.58;7.90;;;;;;;19.23;53.59;99097.59;4995859;28;20030;-28
2023/10/25 08:03:41;;;;;;;26.77;8.85;;;;;;;19.33;53.41;99092.16;4989900;28;20046;-27
2023/10/25 08:06:07;;;;;;;21.70;9.00;;;;;;;19.47;52.80;99093.16;4987425;28;20034;-27
2023/10/25 08:08:32;;;;;;;26.13;9.00;;;;;;;19.34;52.94;99083.81;4989321;28;20099;-28
2023/10/25 08:10:59;;;;;;;32.00;9.40;;;;;;;19.56;52.29;99087.19;4985227;28;20080;-27
2023/10/25 08:13:24;;;;;;;21.35;8.35;;;;;;;19.42;53.21;99090.50;4984022;28;20102;-29
2023/10/25 08:16:00;;;;;;;25.08;9.07;;;;;;;19.71;52.72;99100.59;4985372;28;20109;-27
2023/10/25 08:18:27;;;;;;;26.15;8.82;;;;;;;19.85;52.46;99106.22;4985802;28;20030;-27
2023/10/25 08:20:54;;;;;;;34.10;9.95;;;;;;;19.75;52.48;99106.28;4982369;28;20030;-27
2023/10/25 08:23:19;;;;;;;31.23;9.63;;;;;;;19.77;52.47;99088.72;4986719;28;20026;-29
2023/10/25 08:25:45;;;;;;;27.20;9.35;;;;;;;19.87;52.00;99077.84;4985058;28;20034;-27
2023/10/25 08:28:10;;;;;;;24.88;9.57;;;;;;;20.04;52.00;99077.44;4997045;28;20084;-29
2023/10/25 08:30:36;;;;;;;23.60;9.80;;;;;;;20.17;51.47;99072.50;4985257;28;20022;-27
2023/10/25 08:33:01;;;;;;;33.97;8.88;;;;;;;20.10;51.86;99081.75;4984231;28;20479;-28
2023/10/25 08:35:27;;;;;;;23.70;8.48;;;;;;;20.17;51.50;99089.50;4982840;28;20180;-28
2023/10/25 08:37:52;;;;;;;24.58;8.35;;;;;;;19.98;51.70;99083.19;4997204;28;20049;-26
2023/10/25 08:40:18;;;;;;;19.77;8.23;;;;;;;20.16;51.66;99087.06;5012052;28;20038;-27
2023/10/25 08:42:43;;;;;;;24.73;7.65;;;;;;;20.35;50.78;99082.59;5009718;28;20030;-27
2023/10/25 08:45:10;;;;;;;22.65;9.32;;;;;;;20.35;50.81;99092.59;4993412;28;20132;-27
2023/10/25 08:47:35;;;;;;;26.35;9.32;;;;;;;20.46;50.88;99099.53;4993102;28;20022;-27
2023/10/25 08:50:04;;;;;;;29.13;8.50;;;;;;;20.40;50.47;99089.84;4993377;28;20036;-27
2023/10/25 08:52:29;;;;;;;20.73;7.97;;;;;;;20.54;50.67;99085.38;4993158;28;20026;-28
2023/10/25 08:54:55;;;;;;;28.20;8.68;;;;;;;20.84;49.98;99095.09;4990295;28;20027;-28
2023/10/25 08:57:21;;;;;;;21.15;8.57;;;;;;;20.94;49.81;99106.91;4974198;28;20034;-27
2023/10/25 08:59:47;;;;;;;22.50;7.95;;;;;;;21.02;49.81;99106.31;4973565;28;20027;-28
2023/10/25 09:02:14;;;;;;;26.00;8.02;;;;;;;21.19;49.56;99089.56;4973589;28;20030;-27
2023/10/25 09:04:59;;;;;;;27.70;8.13;;;;;;;21.39;49.49;99083.91;4973644;28;20125;-29
2023/10/25 09:07:29;;;;;;;24.77;8.40;;;;;;;21.36;49.26;99095.34;4974350;28;20062;-26
2023/10/25 09:09:54;;;;;;;21.38;8.07;;;;;;;21.48;49.29;99098.44;4977245;28;20421;-28
2023/10/25 09:12:20;;;;;;;28.65;9.73;;;;;;;21.54;48.83;99104.59;4973639;28;20031;-27
2023/10/25 09:14:47;;;;;;;22.83;9.25;;;;;;;21.66;48.38;99094.13;5004881;28;20034;-27
2023/10/25 09:17:13;;;;;;;25.08;9.02;;;;;;;21.68;48.74;99096.53;4999430;28;20023;-29
2023/10/25 09:19:49;;;;;;;24.52;8.93;;;;;;;21.81;48.23;99101.22;4993069;28;20026;-26
2023/10/25 09:22:23;;;;;;;25.60;8.32;;;;;;;21.93;48.07;99102.69;4993009;28;20085;-28
2023/10/25 09:24:55;;;;;;;28.60;9.00;;;;;;;21.95;47.82;99095.06;4992470;28;20494;-27
2023/10/25 09:27:22;;;;;;;19.05;8.48;;;;;;;22.19;47.53;99089.56;4992601;28;20458;-28
2023/10/25 09:29:50;;;;;;;21.63;8.38;;;;;;;22.36;47.26;99076.28;4991468;28;20033;-28
2023/10/25 09:32:20;;;;;;;22.00;8.70;;;;;;;22.31;46.90;99075.56;4992238;28;20054;-28
2023/10/25 09:34:47;;;;;;;16.85;7.10;;;;;;;22.44;46.19;99072.06;4992302;28;20038;-28
2023/10/25 09:37:13;;;;;;;15.35;7.30;;;;;;;22.39;46.24;99070.28;4990983;28;20084;-27
2023/10/25 09:39:39;;;;;;;24.17;8.20;;;;;;;22.35;46.17;99071.97;4992496;28;20026;-28
2023/10/25 09:42:07;;;;;;;22.42;7.55;;;;;;;22.37;46.16;99077.06;4992368;28;20033;-27
2023/10/25 09:44:57;;;;;;;20.15;7.40;;;;;;;22.61;46.01;99074.22;4992346;28;20023;-27
2023/10/25 09:47:28;;;;;;;25.37;9.73;;;;;;;22.69;45.48;99064.56;4992184;28;20030;-27
2023/10/25 09:50:02;;;;;;;24.38;8.68;;;;;;;22.88;45.23;99059.06;4992420;28;20353;-28
2023/10/25 09:52:30;;;;;;;24.45;8.27;;;;;;;22.88;45.33;99057.16;4992618;28;20061;-28
2023/10/25 09:55:05;;;;;;;26.15;9.40;;;;;;;22.68;45.91;99050.22;4992820;28;20061;-28
2023/10/25 09:57:32;;;;;;;23.45;8.30;;;;;;;22.75;45.70;99058.78;4992424;28;20030;-28
2023/10/25 09:59:59;;;;;;;27.20;9.05;;;;;;;22.99;45.38;99052.34;4992182;28;20538;-27
2023/10/25 10:02:27;;;;;;;23.77;8.43;;;;;;;23.28;44.58;99046.59;4991844;28;20031;-28
2023/10/25 10:05:01;;;;;;;26.65;8.02;;;;;;;23.50;44.26;99056.72;4991704;28;20134;-27
2023/10/25 10:07:33;;;;;;;22.65;6.95;;;;;;;23.62;44.11;99054.25;4992100;28;20454;-27
2023/10/25 10:10:17;;;;;;;20.38;7.70;;;;;;;23.67;44.06;99044.41;4992282;28;20076;-28
2023/10/25 10:12:43;;;;;;;22.40;7.38;;;;;;;23.86;43.94;99045.03;4992128;28;20084;-28
2023/10/25 10:15:12;;;;;;;24.00;7.50;;;;;;;23.83;43.22;99034.00;4992057;28;20022;-27
2023/10/25 10:17:42;;;;;;;22.25;6.82;;;;;;;23.88;43.63;99034.66;4992294;28;20026;-29
2023/10/25 10:20:20;;;;;;;21.65;6.68;;;;;;;23.98;43.29;99030.91;4992010;28;20034;-27
2023/10/25 10:23:03;;;;;;;18.58;6.78;;;;;;;24.15;43.30;99028.28;4991997;28;20553;-28
2023/10/25 10:25:45;;;;;;;19.98;6.85;;;;;;;24.32;42.90;99015.91;4992216;28;20030;-27
2023/10/25 10:28:11;;;;;;;20.00;6.95;;;;;;;24.18;43.39;99013.28;4992244;28;20139;-29
2023/10/25 10:30:41;;;;;;;21.80;6.68;;;;;;;24.47;42.71;99006.56;4991976;28;20498;-27
2023/10/25 10:33:13;;;;;;;18.73;6.57;;;;;;;24.72;42.55;99002.34;4991601;28;20062;-26
2023/10/25 10:35:48;;;;;;;30.17;7.45;;;;;;;24.62;42.56;98997.19;4991841;28;20033;-28
2023/10/25 10:38:14;;;;;;;17.25;6.38;;;;;;;25.07;41.71;98995.06;4991674;28;20026;-28
2023/10/25 10:40:40;;;;;;;19.05;6.32;;;;;;;25.33;40.99;98994.31;4991936;28;20090;-27
2023/10/25 10:43:06;;;;;;;16.08;6.82;;;;;;;25.05;40.79;99010.91;4991687;28;20030;-27
2023/10/25 10:45:32;;;;;;;29.08;7.40;;;;;;;24.67;41.80;98999.75;4991904;28;20030;-30
2023/10/25 10:48:22;;;;;;;15.77;6.80;;;;;;;25.14;41.84;98992.66;4991706;28;20452;-27
2023/10/25 10:50:49;;;;;;;18.23;6.28;;;;;;;25.39;41.01;98984.06;4991797;28;20402;-28
2023/10/25 10:53:15;;;;;;;18.85;6.28;;;;;;;25.55;40.55;98983.28;4991654;28;20026;-28
2023/10/25 10:55:40;;;;;;;25.65;9.15;;;;;;;25.33;41.26;98994.31;4991579;28;20045;-28
2023/10/25 10:58:07;;;;;;;19.88;8.38;;;;;;;25.29;40.93;98990.63;4991462;28;20117;-27
2023/10/25 11:00:33;;;;;;;18.15;6.70;;;;;;;25.47;40.74;98973.16;4991495;28;20030;-27
2023/10/25 11:03:00;;;;;;;20.33;6.75;;;;;;;25.40;40.52;98958.44;4991571;28;20026;-29
2023/10/25 11:05:26;;;;;;;17.67;6.70;;;;;;;25.52;40.33;98944.97;4991556;28;20640;-28
2023/10/25 11:07:53;;;;;;;20.27;6.40;;;;;;;25.70;39.83;98943.03;4991696;28;20121;-27
2023/10/25 11:10:19;;;;;;;19.77;6.32;;;;;;;25.66;40.08;98947.53;4991553;28;20026;-27
2023/10/25 11:12:45;;;;;;;21.38;6.43;;;;;;;25.79;39.75;98945.75;4991553;28;20034;-27
2023/10/25 11:15:12;;;;;;;21.00;6.28;;;;;;;26.05;39.53;98935.59;4993226;28;20018;-27
2023/10/25 11:17:38;;;;;;;14.80;5.95;;;;;;;26.26;38.94;98943.06;4995242;28;20084;-28
2023/10/25 11:20:04;;;;;;;20.90;6.20;;;;;;;26.37;38.80;98943.47;4994848;28;20489;-27
2023/10/25 11:22:30;;;;;;;13.02;5.72;;;;;;;26.50;38.40;98939.72;4994993;28;20026;-26